Time;durP1;ratioP1;P1;durP2;ratioP2;P2;SDS_P1;SDS_P2;PMS_P1;PMS_P2;Temp;Humidity;BMP_temperature;BMP_pressure;BME280_temperature;BME280_humidity;BME280_pressure;Samples;Min_cycle;Max_cycle;Signal;HPM_P1;HPM_P2
2023/09/03 00:00:30;;;;;;;4.20;2.17;;;;;;;15.92;100.00;96545.53;5013282;28;24420;-73
2023/09/03 00:02:56;;;;;;;3.30;2.00;;;;;;;15.79;100.00;96550.78;5013341;28;24978;-72
2023/09/03 00:05:23;;;;;;;3.08;2.00;;;;;;;15.69;100.00;96547.19;5013735;28;24515;-71
2023/09/03 00:07:50;;;;;;;2.90;1.98;;;;;;;15.65;100.00;96541.34;5013296;28;24981;-72
2023/09/03 00:10:17;;;;;;;2.20;1.65;;;;;;;15.64;100.00;96541.41;5013275;28;24431;-72
2023/09/03 00:12:44;;;;;;;3.35;2.50;;;;;;;15.67;100.00;96536.84;5013392;28;24440;-72
2023/09/03 00:15:10;;;;;;;3.47;2.50;;;;;;;15.70;100.00;96541.03;5013383;28;24472;-72
2023/09/03 00:17:38;;;;;;;3.65;2.50;;;;;;;15.71;100.00;96534.84;5013221;28;24419;-73
2023/09/03 00:20:05;;;;;;;3.30;2.20;;;;;;;15.73;100.00;96541.63;5013232;28;24768;-73
2023/09/03 00:22:32;;;;;;;3.75;2.60;;;;;;;15.76;100.00;96534.50;5013365;28;24413;-72
2023/09/03 00:24:58;;;;;;;2.42;2.08;;;;;;;15.83;100.00;96535.75;5013253;28;24415;-73
2023/09/03 00:27:25;;;;;;;4.87;2.20;;;;;;;15.74;100.00;96532.03;5013124;28;24475;-72
2023/09/03 00:29:51;;;;;;;4.28;2.15;;;;;;;15.69;100.00;96526.31;5012804;28;24987;-72
2023/09/03 00:32:18;;;;;;;4.93;2.47;;;;;;;15.71;100.00;96530.44;5012932;28;24451;-72
2023/09/03 00:34:46;;;;;;;3.40;2.50;;;;;;;15.66;100.00;96534.34;5013230;28;24433;-72
2023/09/03 00:37:13;;;;;;;5.20;2.80;;;;;;;15.66;100.00;96531.72;5013030;28;24974;-73
2023/09/03 00:39:39;;;;;;;3.58;2.53;;;;;;;15.62;100.00;96536.31;5012454;28;25115;-72
2023/09/03 00:42:06;;;;;;;3.03;2.50;;;;;;;15.65;100.00;96536.13;5013342;28;24404;-72
2023/09/03 00:44:32;;;;;;;3.00;2.43;;;;;;;15.63;100.00;96540.59;5012459;28;24546;-72
2023/09/03 00:46:59;;;;;;;4.38;2.63;;;;;;;15.61;100.00;96545.09;5012733;28;24413;-72
2023/09/03 00:49:26;;;;;;;9.50;2.90;;;;;;;15.62;100.00;96549.38;5012825;28;24413;-73
2023/09/03 00:51:56;;;;;;;4.40;2.80;;;;;;;15.73;100.00;96552.09;5012604;28;24467;-72
2023/09/03 00:54:24;;;;;;;5.97;2.70;;;;;;;15.71;100.00;96553.13;5012615;28;25032;-72
2023/09/03 00:56:51;;;;;;;6.30;2.58;;;;;;;15.71;100.00;96553.13;5012629;28;24416;-72
2023/09/03 00:59:20;;;;;;;3.10;2.55;;;;;;;15.61;100.00;96552.06;5012354;28;24420;-73
2023/09/03 01:01:51;;;;;;;3.90;2.03;;;;;;;15.56;100.00;96554.19;5012457;28;24415;-72
2023/09/03 01:04:18;;;;;;;4.93;2.40;;;;;;;15.57;100.00;96555.84;5012644;28;25036;-73
2023/09/03 01:06:45;;;;;;;2.85;1.98;;;;;;;15.39;100.00;96548.38;5012473;28;24416;-72
2023/09/03 01:09:13;;;;;;;2.85;2.03;;;;;;;15.28;100.00;96542.19;5012337;28;24420;-73
2023/09/03 01:11:48;;;;;;;4.55;2.58;;;;;;;15.25;100.00;96551.09;5011899;28;24463;-72
2023/09/03 01:14:21;;;;;;;5.97;2.97;;;;;;;15.28;100.00;96555.25;5012418;28;24412;-73
2023/09/03 01:16:54;;;;;;;5.10;2.60;;;;;;;15.34;100.00;96553.06;5012329;28;24424;-72
2023/09/03 01:19:50;;;;;;;3.35;2.42;;;;;;;15.42;100.00;96550.75;5012064;28;24415;-73
2023/09/03 01:22:29;;;;;;;3.58;2.45;;;;;;;15.36;100.00;96561.63;5011964;28;24400;-73
2023/09/03 01:25:09;;;;;;;3.72;2.40;;;;;;;15.25;100.00;96557.16;5011958;28;24425;-72
2023/09/03 01:27:42;;;;;;;3.55;2.22;;;;;;;15.25;100.00;96558.94;5011958;28;24467;-72
2023/09/03 01:30:10;;;;;;;3.47;2.72;;;;;;;15.24;100.00;96565.94;5011740;28;24415;-72
2023/09/03 01:32:38;;;;;;;5.50;3.03;;;;;;;15.22;100.00;96559.97;5011696;28;24444;-71
2023/09/03 01:35:07;;;;;;;4.22;2.72;;;;;;;15.29;100.00;96559.56;5012055;28;24423;-73
2023/09/03 01:37:33;;;;;;;3.58;2.67;;;;;;;15.35;100.00;96562.56;5011755;28;24413;-72
2023/09/03 01:40:00;;;;;;;3.63;2.60;;;;;;;15.39;100.00;96571.88;5011895;28;24428;-72
2023/09/03 01:42:26;;;;;;;4.57;3.13;;;;;;;15.45;100.00;96575.81;5011684;28;24409;-72
2023/09/03 01:44:53;;;;;;;4.15;2.90;;;;;;;15.46;100.00;96580.06;5011640;28;24951;-73
2023/09/03 01:47:28;;;;;;;3.85;2.45;;;;;;;15.46;100.00;96569.63;5011561;28;24416;-72
2023/09/03 01:50:02;;;;;;;4.43;2.50;;;;;;;15.38;100.00;96582.38;5011239;28;24943;-72
2023/09/03 01:52:38;;;;;;;5.15;2.35;;;;;;;15.25;100.00;96578.03;5011612;28;24440;-73
2023/09/03 01:55:08;;;;;;;8.15;2.38;;;;;;;15.22;100.00;96580.84;5011641;28;24831;-72
2023/09/03 01:57:40;;;;;;;4.05;2.45;;;;;;;15.24;100.00;96584.19;5010521;28;24417;-73
2023/09/03 02:00:12;;;;;;;3.58;2.15;;;;;;;15.23;100.00;96590.31;5011325;28;24420;-72
2023/09/03 02:02:42;;;;;;;8.50;2.55;;;;;;;15.30;100.00;96588.13;5011445;28;24467;-73
2023/09/03 02:05:08;;;;;;;4.80;2.97;;;;;;;15.31;100.00;96597.63;5011448;28;25006;-73
2023/09/03 02:07:36;;;;;;;4.38;2.65;;;;;;;15.18;100.00;96600.25;5011490;28;24416;-73
2023/09/03 02:10:02;;;;;;;3.67;2.30;;;;;;;15.08;100.00;96595.75;5011108;28;24424;-73
2023/09/03 02:12:29;;;;;;;3.22;2.20;;;;;;;15.04;100.00;96602.97;5011526;28;24455;-73
2023/09/03 02:14:55;;;;;;;3.88;2.40;;;;;;;15.02;100.00;96591.81;5011601;28;24428;-73
2023/09/03 02:17:23;;;;;;;3.35;2.25;;;;;;;14.93;100.00;96593.25;5011346;28;24986;-73
2023/09/03 02:19:52;;;;;;;4.80;2.40;;;;;;;14.94;100.00;96596.69;5011111;28;24514;-73
2023/09/03 02:22:19;;;;;;;4.60;2.65;;;;;;;15.00;100.00;96598.88;5011219;28;24420;-73
2023/09/03 02:24:46;;;;;;;5.43;2.97;;;;;;;15.09;100.00;96598.28;5011083;28;24428;-73
2023/09/03 02:27:13;;;;;;;4.93;2.67;;;;;;;15.16;100.00;96609.94;5011091;28;24420;-73
2023/09/03 02:29:40;;;;;;;4.50;2.67;;;;;;;15.15;100.00;96608.28;5011168;28;24431;-73
2023/09/03 02:32:07;;;;;;;5.85;2.63;;;;;;;15.07;100.00;96607.97;5008969;28;24455;-73
2023/09/03 02:34:33;;;;;;;3.85;2.05;;;;;;;14.93;100.00;96598.47;5004094;28;24420;-73
2023/09/03 02:37:01;;;;;;;2.30;2.10;;;;;;;14.77;100.00;96601.25;5010915;28;24439;-73
2023/09/03 02:39:28;;;;;;;5.13;2.15;;;;;;;14.74;100.00;96606.69;5010695;28;24451;-73
2023/09/03 02:41:54;;;;;;;8.93;2.47;;;;;;;14.80;100.00;96610.66;5010812;28;24427;-72
2023/09/03 02:44:21;;;;;;;6.47;2.17;;;;;;;14.83;100.00;96589.59;5010920;28;25199;-71
2023/09/03 02:46:47;;;;;;;2.90;2.08;;;;;;;14.84;100.00;96603.47;5010964;28;24886;-72
2023/09/03 02:49:14;;;;;;;3.88;2.42;;;;;;;14.85;100.00;96603.34;5010736;28;24420;-72
2023/09/03 02:51:41;;;;;;;3.63;2.35;;;;;;;14.83;100.00;96609.59;5010539;28;24427;-72
2023/09/03 02:54:09;;;;;;;3.88;2.30;;;;;;;14.77;100.00;96605.66;5010690;28;24970;-72
2023/09/03 02:56:35;;;;;;;5.28;2.70;;;;;;;14.73;100.00;96597.19;5010756;28;24419;-72
2023/09/03 02:59:02;;;;;;;4.30;2.42;;;;;;;14.80;100.00;96607.22;5010650;28;24416;-72
2023/09/03 03:01:28;;;;;;;4.32;2.42;;;;;;;14.84;100.00;96612.13;5010354;28;24408;-73
2023/09/03 03:03:55;;;;;;;4.32;2.25;;;;;;;14.89;100.00;96610.03;5010575;28;24409;-73
2023/09/03 03:06:22;;;;;;;5.45;2.40;;;;;;;14.87;100.00;96617.16;5010415;28;24422;-71
2023/09/03 03:08:48;;;;;;;6.70;2.30;;;;;;;14.88;100.00;96618.81;5010618;28;24448;-72
2023/09/03 03:11:18;;;;;;;5.30;2.15;;;;;;;14.81;100.00;96630.59;5010337;28;24423;-71
2023/09/03 03:13:46;;;;;;;3.17;2.17;;;;;;;14.67;100.00;96626.25;5010316;28;24986;-72
2023/09/03 03:16:14;;;;;;;2.75;2.00;;;;;;;14.65;100.00;96617.72;5010495;28;24463;-72
2023/09/03 03:18:42;;;;;;;14.90;2.45;;;;;;;14.61;100.00;96608.44;5010663;28;24428;-72
2023/09/03 03:21:10;;;;;;;4.65;2.30;;;;;;;14.59;100.00;96599.03;5010032;28;24958;-72
2023/09/03 03:23:37;;;;;;;2.53;2.30;;;;;;;14.60;100.00;96598.09;5010520;28;24408;-72
2023/09/03 03:26:05;;;;;;;4.10;2.38;;;;;;;14.61;100.00;96602.34;5010462;28;24499;-71
2023/09/03 03:28:34;;;;;;;3.63;2.20;;;;;;;14.68;100.00;96601.88;5010654;28;24788;-71
2023/09/03 03:31:09;;;;;;;4.70;2.28;;;;;;;14.70;100.00;96615.63;5010084;28;24423;-72
2023/09/03 03:33:35;;;;;;;4.78;1.85;;;;;;;14.58;100.00;96613.84;5010093;28;24448;-72
2023/09/03 03:36:02;;;;;;;2.20;1.70;;;;;;;14.58;100.00;96613.84;5010392;28;24413;-71
2023/09/03 03:38:28;;;;;;;2.47;2.10;;;;;;;14.61;100.00;96618.88;5025394;23;24530;-72
2023/09/03 03:41:06;;;;;;;6.22;2.25;;;;;;;14.63;100.00;96619.59;5009895;28;24417;-71
2023/09/03 03:43:34;;;;;;;3.40;1.67;;;;;;;14.44;100.00;96626.91;5009998;28;24404;-72
2023/09/03 03:46:01;;;;;;;2.90;1.63;;;;;;;14.37;100.00;96638.66;5009817;28;24416;-72
2023/09/03 03:48:27;;;;;;;3.60;1.92;;;;;;;14.34;100.00;96638.84;5009698;28;24963;-71
2023/09/03 03:50:54;;;;;;;3.40;1.95;;;;;;;14.29;100.00;96636.53;5009700;28;24420;-70
2023/09/03 03:53:21;;;;;;;3.60;2.10;;;;;;;14.28;100.00;96637.47;5009724;28;24467;-72
2023/09/03 03:55:47;;;;;;;4.70;2.25;;;;;;;14.28;100.00;96635.72;5009561;28;24415;-71
2023/09/03 03:58:15;;;;;;;2.50;2.23;;;;;;;14.16;100.00;96636.47;5009575;28;24419;-71
2023/09/03 04:00:42;;;;;;;4.28;1.92;;;;;;;14.15;100.00;96640.00;5009280;28;24417;-71
2023/09/03 04:03:09;;;;;;;9.70;2.22;;;;;;;14.21;100.00;96638.81;5009568;28;24428;-71
2023/09/03 04:05:35;;;;;;;2.60;1.98;;;;;;;14.30;100.00;96648.63;5009753;28;24772;-71
2023/09/03 04:08:02;;;;;;;4.93;2.05;;;;;;;14.33;100.00;96642.38;5010882;28;24424;-71
2023/09/03 04:10:28;;;;;;;4.20;2.20;;;;;;;14.37;100.00;96642.09;5010580;28;24523;-71
2023/09/03 04:12:56;;;;;;;4.90;2.10;;;;;;;14.36;100.00;96640.44;5011046;28;24443;-71
2023/09/03 04:15:22;;;;;;;3.03;2.17;;;;;;;14.28;100.00;96635.72;5011395;28;24424;-71
2023/09/03 04:17:50;;;;;;;3.28;2.05;;;;;;;14.21;100.00;96639.63;5010971;28;24415;-71
2023/09/03 04:20:17;;;;;;;2.08;1.85;;;;;;;14.19;100.00;96640.66;5012923;28;24416;-71
2023/09/03 04:22:43;;;;;;;3.63;2.33;;;;;;;14.20;100.00;96645.78;5014884;28;24417;-71
2023/09/03 04:25:10;;;;;;;2.90;2.17;;;;;;;14.27;100.00;96646.22;5014585;28;24423;-71
2023/09/03 04:27:36;;;;;;;2.40;2.00;;;;;;;14.31;100.00;96650.28;5013805;28;24436;-71
2023/09/03 04:30:04;;;;;;;4.40;2.10;;;;;;;14.35;100.00;96648.31;5012723;28;24424;-71
2023/09/03 04:32:31;;;;;;;3.05;1.80;;;;;;;14.38;100.00;96645.53;5012993;28;24446;-71
2023/09/03 04:34:59;;;;;;;3.13;2.10;;;;;;;14.33;100.00;96647.59;5013220;28;24409;-71
2023/09/03 04:37:25;;;;;;;5.85;2.03;;;;;;;14.28;100.00;96653.94;5012809;28;24990;-71
2023/09/03 04:39:52;;;;;;;2.58;1.95;;;;;;;14.28;100.00;96664.38;5012326;28;24420;-71
2023/09/03 04:42:18;;;;;;;2.00;1.80;;;;;;;14.30;100.00;96661.66;5012665;28;24416;-71
2023/09/03 04:44:45;;;;;;;2.15;1.90;;;;;;;14.34;100.00;96662.28;5012781;28;24519;-71
2023/09/03 04:47:11;;;;;;;2.60;1.90;;;;;;;14.34;100.00;96662.28;5012442;28;24408;-71
2023/09/03 04:49:38;;;;;;;6.90;1.95;;;;;;;14.28;100.00;96671.34;5011948;28;24413;-71
2023/09/03 04:52:06;;;;;;;2.88;1.80;;;;;;;14.24;100.00;96660.28;5012331;28;24428;-71
2023/09/03 04:54:33;;;;;;;2.88;2.20;;;;;;;14.31;100.00;96672.91;5012243;28;24444;-71
2023/09/03 04:56:59;;;;;;;2.88;2.20;;;;;;;14.33;100.00;96671.88;5012320;28;24475;-71
2023/09/03 04:59:28;;;;;;;1.97;1.77;;;;;;;14.27;100.00;96688.72;5012413;28;24416;-70
2023/09/03 05:01:54;;;;;;;3.53;2.00;;;;;;;14.29;100.00;96686.88;5012123;28;24408;-71
2023/09/03 05:04:21;;;;;;;5.70;1.95;;;;;;;14.35;100.00;96682.19;5012232;28;24419;-72
2023/09/03 05:06:47;;;;;;;4.47;2.03;;;;;;;14.35;100.00;96680.47;5012327;28;24810;-71
2023/09/03 05:09:15;;;;;;;2.60;1.88;;;;;;;14.21;100.00;96685.69;5012110;28;24416;-71
2023/09/03 05:11:42;;;;;;;2.42;1.77;;;;;;;14.15;100.00;96688.69;5011826;28;24955;-71
2023/09/03 05:14:09;;;;;;;2.55;1.95;;;;;;;14.21;100.00;96686.53;5012167;28;24452;-71
2023/09/03 05:16:35;;;;;;;5.60;2.28;;;;;;;14.27;100.00;96693.09;5012009;28;24427;-71
2023/09/03 05:19:06;;;;;;;7.60;2.40;;;;;;;14.29;100.00;96692.09;5011851;28;24996;-70
2023/09/03 05:21:32;;;;;;;2.45;1.92;;;;;;;14.29;100.00;96681.66;5011829;28;24421;-70
2023/09/03 05:23:59;;;;;;;3.08;2.03;;;;;;;14.31;100.00;96686.78;5011676;28;24417;-70
2023/09/03 05:26:27;;;;;;;3.08;2.13;;;;;;;14.33;100.00;96679.72;5011763;28;24898;-70
2023/09/03 05:28:53;;;;;;;3.55;2.25;;;;;;;14.40;100.00;96681.00;5011767;28;24420;-70
2023/09/03 05:31:20;;;;;;;3.65;2.45;;;;;;;14.49;100.00;96683.03;5010554;28;24479;-70
2023/09/03 05:33:46;;;;;;;3.53;2.25;;;;;;;14.56;100.00;96691.31;5011704;28;24455;-70
2023/09/03 05:36:13;;;;;;;3.05;2.00;;;;;;;14.60;100.00;96703.19;5011678;28;24470;-70
2023/09/03 05:38:42;;;;;;;5.50;2.30;;;;;;;14.62;100.00;96701.34;5011267;28;24779;-70
2023/09/03 05:41:09;;;;;;;3.88;1.80;;;;;;;14.68;100.00;96708.78;5011374;28;24424;-70
2023/09/03 05:43:37;;;;;;;4.60;1.73;;;;;;;14.72;100.00;96722.44;5011614;28;24408;-70
2023/09/03 05:46:04;;;;;;;3.92;2.00;;;;;;;14.79;100.00;96733.31;5011517;28;24412;-70
2023/09/03 05:48:30;;;;;;;4.80;1.95;;;;;;;14.85;100.00;96731.16;5011310;28;24435;-70
2023/09/03 05:50:59;;;;;;;3.30;2.05;;;;;;;14.90;100.00;96738.66;5010956;28;24420;-70
2023/09/03 05:53:26;;;;;;;3.50;1.93;;;;;;;14.95;100.00;96736.63;5011216;28;25066;-71
2023/09/03 05:55:52;;;;;;;2.58;1.90;;;;;;;15.01;100.00;96728.38;5011393;28;24431;-71
2023/09/03 05:58:19;;;;;;;3.33;2.20;;;;;;;15.06;100.00;96715.88;5011321;28;24416;-71
2023/09/03 06:00:46;;;;;;;3.83;1.98;;;;;;;14.97;100.00;96706.88;5011088;28;24427;-71
2023/09/03 06:03:13;;;;;;;4.15;1.83;;;;;;;14.88;100.00;96707.47;5011238;28;24413;-71
2023/09/03 06:05:40;;;;;;;4.63;1.83;;;;;;;14.88;100.00;96714.47;5011110;28;24404;-71
2023/09/03 06:08:06;;;;;;;9.25;1.80;;;;;;;14.89;100.00;96705.72;5010942;28;24955;-71
2023/09/03 06:10:33;;;;;;;1.92;1.60;;;;;;;14.98;100.00;96707.69;5010992;28;24412;-71
2023/09/03 06:12:59;;;;;;;4.80;2.10;;;;;;;14.97;100.00;96714.69;5010996;28;24440;-71
2023/09/03 06:15:26;;;;;;;2.80;1.67;;;;;;;15.03;100.00;96729.13;5010948;28;24420;-70
2023/09/03 06:17:53;;;;;;;3.65;1.70;;;;;;;14.97;100.00;96732.97;5010756;28;24955;-71
2023/09/03 06:20:20;;;;;;;4.32;2.13;;;;;;;15.12;100.00;96735.50;5010756;28;24400;-71
2023/09/03 06:22:46;;;;;;;2.75;1.92;;;;;;;15.10;100.00;96730.41;5011073;28;24780;-70
2023/09/03 06:25:13;;;;;;;4.78;2.40;;;;;;;15.19;100.00;96736.78;5010902;28;24427;-72
2023/09/03 06:27:40;;;;;;;4.13;1.80;;;;;;;15.27;100.00;96731.88;5010825;28;24779;-71
2023/09/03 06:30:08;;;;;;;2.47;1.80;;;;;;;15.44;100.00;96725.56;5010411;28;24447;-71
2023/09/03 06:32:34;;;;;;;3.87;1.93;;;;;;;15.57;100.00;96729.00;5010522;28;24963;-71
2023/09/03 06:35:03;;;;;;;4.05;1.80;;;;;;;15.69;100.00;96728.22;5010540;28;24494;-71
2023/09/03 06:37:29;;;;;;;7.50;2.15;;;;;;;15.70;100.00;96737.72;5010388;28;24417;-71
2023/09/03 06:39:56;;;;;;;2.83;2.20;;;;;;;15.81;100.00;96747.44;5010436;28;24533;-71
2023/09/03 06:42:22;;;;;;;3.80;2.10;;;;;;;15.93;100.00;96751.81;5010110;28;24598;-71
2023/09/03 06:44:49;;;;;;;2.50;2.08;;;;;;;16.02;100.00;96760.81;5010622;28;24542;-72
2023/09/03 06:47:15;;;;;;;2.85;2.17;;;;;;;16.09;100.00;96762.06;5013513;28;24431;-72
2023/09/03 06:49:42;;;;;;;2.55;2.33;;;;;;;16.14;100.00;96765.19;5012866;28;24796;-72
2023/09/03 06:52:10;;;;;;;3.13;2.20;;;;;;;16.26;100.00;96773.13;5011482;28;24427;-72
2023/09/03 06:54:36;;;;;;;3.13;2.20;;;;;;;16.34;100.00;96776.84;5011324;28;24504;-72
2023/09/03 06:57:03;;;;;;;4.70;2.15;;;;;;;16.53;100.00;96762.50;5011961;28;24439;-72
2023/09/03 06:59:29;;;;;;;3.60;2.40;;;;;;;16.62;100.00;96769.69;5012144;28;24451;-72
2023/09/03 07:01:56;;;;;;;3.90;2.10;;;;;;;16.72;100.00;96770.69;5011659;28;24439;-72
2023/09/03 07:04:22;;;;;;;3.53;2.20;;;;;;;16.70;100.00;96770.81;5012118;28;24425;-72
2023/09/03 07:06:49;;;;;;;2.20;1.87;;;;;;;16.70;100.00;96783.91;5012006;28;24598;-71
2023/09/03 07:09:17;;;;;;;3.33;2.00;;;;;;;16.79;100.00;96781.59;5011729;28;24428;-72
2023/09/03 07:11:43;;;;;;;3.95;2.20;;;;;;;16.80;100.00;96784.13;5011791;28;24519;-72
2023/09/03 07:14:10;;;;;;;2.95;1.80;;;;;;;16.90;100.00;96789.50;5011651;28;24467;-72
2023/09/03 07:16:36;;;;;;;2.28;2.05;;;;;;;16.95;100.00;96797.88;5012164;28;25045;-72
2023/09/03 07:19:03;;;;;;;4.23;2.30;;;;;;;17.00;100.00;96794.94;5012383;28;24500;-72
2023/09/03 07:21:29;;;;;;;2.33;2.00;;;;;;;17.10;100.00;96793.31;5012220;28;24416;-72
2023/09/03 07:23:56;;;;;;;3.03;2.00;;;;;;;17.13;100.00;96791.31;5012297;28;24421;-72
2023/09/03 07:26:24;;;;;;;2.38;1.92;;;;;;;17.20;100.00;96786.44;5012312;28;24439;-72
2023/09/03 07:28:51;;;;;;;2.78;1.80;;;;;;;17.31;100.00;96786.50;5012065;28;24416;-72
2023/09/03 07:31:17;;;;;;;4.22;2.20;;;;;;;17.42;100.00;96785.69;5011885;28;24416;-72
2023/09/03 07:33:44;;;;;;;3.90;2.30;;;;;;;17.49;100.00;96786.09;5012566;28;24558;-72
2023/09/03 07:36:11;;;;;;;4.28;2.20;;;;;;;17.42;100.00;96791.78;5012550;28;24528;-72
2023/09/03 07:38:38;;;;;;;3.80;2.00;;;;;;;17.52;100.00;96791.09;5011989;28;24436;-72
2023/09/03 07:41:05;;;;;;;2.60;2.00;;;;;;;17.65;100.00;96792.69;5012921;28;24985;-72
2023/09/03 07:43:33;;;;;;;2.40;1.92;;;;;;;17.80;100.00;96793.38;5012348;28;24415;-72
2023/09/03 07:45:59;;;;;;;2.45;1.75;;;;;;;17.85;100.00;96793.00;5012189;28;24431;-72
2023/09/03 07:48:26;;;;;;;3.80;2.13;;;;;;;17.93;100.00;96808.97;5012100;28;24788;-72
2023/09/03 07:50:52;;;;;;;2.87;1.93;;;;;;;18.10;100.00;96805.94;5011863;28;24419;-72
2023/09/03 07:53:19;;;;;;;4.05;2.15;;;;;;;18.27;100.00;96815.09;5012097;28;24970;-72
2023/09/03 07:55:45;;;;;;;4.13;2.00;;;;;;;18.46;100.00;96817.13;5015231;28;24973;-72
2023/09/03 07:58:13;;;;;;;2.17;1.70;;;;;;;18.75;100.00;96821.91;5016033;28;24436;-72
2023/09/03 08:00:41;;;;;;;3.20;1.70;;;;;;;18.84;100.00;96814.16;5016167;28;24421;-72
2023/09/03 08:03:08;;;;;;;2.35;1.65;;;;;;;18.94;100.00;96819.50;5016078;28;24413;-72
2023/09/03 08:05:34;;;;;;;2.13;1.70;;;;;;;19.00;100.00;96823.44;5016234;28;24427;-72
2023/09/03 08:08:01;;;;;;;2.20;1.58;;;;;;;19.07;100.00;96819.38;5016356;28;24420;-72
2023/09/03 08:10:28;;;;;;;3.97;1.77;;;;;;;19.15;100.00;96818.75;5015872;28;24416;-72
2023/09/03 08:12:54;;;;;;;1.95;1.65;;;;;;;19.31;100.00;96819.16;5016534;28;24435;-72
2023/09/03 08:15:21;;;;;;;2.83;1.83;;;;;;;19.21;100.00;96828.78;5016008;28;24448;-72
2023/09/03 08:17:48;;;;;;;3.10;1.83;;;;;;;19.27;100.00;96831.72;5013826;28;24409;-72
2023/09/03 08:20:15;;;;;;;2.90;1.90;;;;;;;19.39;100.00;96829.06;5013264;28;24967;-72
2023/09/03 08:22:41;;;;;;;2.33;1.60;;;;;;;19.40;100.00;96831.56;5013622;28;24435;-72
2023/09/03 08:25:08;;;;;;;8.65;1.85;;;;;;;19.43;100.00;96835.72;5013287;28;24443;-71
2023/09/03 08:27:35;;;;;;;2.40;1.65;;;;;;;19.60;100.00;96837.81;5013743;28;24427;-71
2023/09/03 08:30:02;;;;;;;2.37;1.60;;;;;;;19.65;100.00;96840.09;5013520;28;24421;-71
2023/09/03 08:32:30;;;;;;;1.70;1.45;;;;;;;19.77;100.00;96845.19;5011221;28;24920;-72
2023/09/03 08:34:58;;;;;;;3.60;1.50;;;;;;;20.03;100.00;96845.63;5013174;28;24456;-71
2023/09/03 08:37:26;;;;;;;3.97;1.53;;;;;;;20.15;100.00;96846.41;5013332;28;24419;-71
2023/09/03 08:39:53;;;;;;;2.42;1.38;;;;;;;20.48;100.00;96853.22;5013192;28;24512;-72
2023/09/03 08:42:20;;;;;;;2.10;1.60;;;;;;;20.98;100.00;96848.03;5013146;28;24409;-71
2023/09/03 08:44:52;;;;;;;2.53;1.50;;;;;;;21.45;100.00;96850.94;5015311;28;24435;-72
2023/09/03 08:47:19;;;;;;;4.20;1.60;;;;;;;21.88;100.00;96849.69;5015281;28;24411;-72
2023/09/03 08:49:46;;;;;;;2.78;1.48;;;;;;;22.30;100.00;96846.75;5015217;28;24423;-72
2023/09/03 08:52:15;;;;;;;3.47;1.50;;;;;;;22.57;100.00;96847.75;5015533;28;24456;-72
2023/09/03 08:54:42;;;;;;;2.25;1.40;;;;;;;22.87;100.00;96850.13;5015617;28;24855;-72
2023/09/03 08:57:09;;;;;;;1.92;1.52;;;;;;;22.93;100.00;96846.94;5015164;28;24968;-72
2023/09/03 08:59:36;;;;;;;2.28;1.30;;;;;;;23.04;100.00;96855.66;5013469;28;24455;-72
2023/09/03 09:02:03;;;;;;;1.42;1.00;;;;;;;23.46;100.00;96849.84;5012639;28;24422;-72
2023/09/03 09:04:31;;;;;;;1.43;1.00;;;;;;;23.49;100.00;96853.00;5012694;28;24966;-72
2023/09/03 09:06:59;;;;;;;1.38;1.15;;;;;;;23.73;100.00;96848.94;5012854;28;24492;-72
2023/09/03 09:09:30;;;;;;;1.58;1.00;;;;;;;23.84;100.00;96849.56;5012750;28;24792;-72
2023/09/03 09:12:02;;;;;;;1.80;1.05;;;;;;;23.54;100.00;96853.38;5012679;28;24419;-72
2023/09/03 09:14:36;;;;;;;1.70;0.90;;;;;;;23.54;100.00;96861.31;5012658;28;24436;-72
2023/09/03 09:17:02;;;;;;;3.43;1.30;;;;;;;23.75;100.00;96863.69;5012512;28;24512;-72
2023/09/03 09:19:29;;;;;;;1.00;0.90;;;;;;;23.86;100.00;96860.00;5012418;28;24412;-72
2023/09/03 09:21:55;;;;;;;1.03;0.90;;;;;;;23.91;100.00;96863.81;5014479;28;24416;-72
2023/09/03 09:24:22;;;;;;;1.10;1.00;;;;;;;24.03;100.00;96872.38;5015471;28;24428;-72
2023/09/03 09:26:50;;;;;;;3.28;1.10;;;;;;;23.62;100.00;96877.28;5015779;28;24424;-72
2023/09/03 09:29:21;;;;;;;3.53;1.02;;;;;;;23.75;100.00;96871.63;5015046;28;24428;-72
2023/09/03 09:31:48;;;;;;;2.03;1.30;;;;;;;23.37;100.00;96878.00;5014747;28;24632;-72
2023/09/03 09:34:14;;;;;;;1.55;1.02;;;;;;;23.56;100.00;96869.94;5014900;28;24450;-72
2023/09/03 09:36:53;;;;;;;2.05;1.13;;;;;;;23.49;100.00;96873.34;5015347;28;24416;-72
2023/09/03 09:39:19;;;;;;;1.50;1.10;;;;;;;23.66;100.00;96869.88;5013926;28;24436;-73
2023/09/03 09:41:46;;;;;;;1.60;0.95;;;;;;;23.73;100.00;96880.69;5011874;28;24974;-73
2023/09/03 09:44:14;;;;;;;1.10;1.00;;;;;;;23.69;100.00;96877.50;5011979;28;24427;-73
2023/09/03 09:46:40;;;;;;;3.22;1.60;;;;;;;23.63;100.00;96876.28;5012221;28;24420;-73
2023/09/03 09:49:07;;;;;;;1.67;1.00;;;;;;;23.38;100.00;96884.94;5012041;28;24432;-73
2023/09/03 09:51:34;;;;;;;2.03;0.90;;;;;;;23.54;100.00;96874.53;5011925;28;24427;-73
2023/09/03 09:54:02;;;;;;;1.48;1.00;;;;;;;23.63;100.00;96881.56;5012333;28;24428;-72
2023/09/03 09:56:30;;;;;;;1.73;1.30;;;;;;;23.71;100.00;96885.31;5011898;28;24415;-73
2023/09/03 09:58:58;;;;;;;1.65;1.17;;;;;;;23.39;100.00;96887.44;5011645;28;24424;-73
2023/09/03 10:01:27;;;;;;;1.35;1.25;;;;;;;23.53;100.00;96890.56;5011670;28;24788;-72
2023/09/03 10:03:54;;;;;;;1.50;1.02;;;;;;;23.57;100.00;96895.38;5011818;28;24506;-73
2023/09/03 10:06:23;;;;;;;1.45;1.05;;;;;;;23.96;100.00;96889.03;5011855;28;24727;-73
2023/09/03 10:08:52;;;;;;;1.30;1.20;;;;;;;24.30;100.00;96884.66;5011519;28;24959;-73
2023/09/03 10:11:18;;;;;;;2.17;1.38;;;;;;;24.28;100.00;96883.13;5011215;28;24443;-73
2023/09/03 10:13:45;;;;;;;2.10;1.10;;;;;;;24.19;100.00;96878.78;5011810;28;24412;-73
2023/09/03 10:16:12;;;;;;;3.45;1.10;;;;;;;23.78;100.00;96887.22;5011583;28;24436;-72
2023/09/03 10:18:43;;;;;;;1.40;1.00;;;;;;;23.73;100.00;96884.19;5010958;28;24436;-73
2023/09/03 10:21:10;;;;;;;1.40;1.00;;;;;;;23.39;100.00;96891.88;5011272;28;24405;-72
2023/09/03 10:23:45;;;;;;;2.10;1.05;;;;;;;23.83;100.00;96894.69;5011279;28;24420;-72
2023/09/03 10:26:14;;;;;;;1.77;1.23;;;;;;;24.12;100.00;96892.63;5011501;28;24405;-72
2023/09/03 10:28:44;;;;;;;2.27;1.00;;;;;;;24.22;100.00;96884.59;5011130;28;24507;-72
2023/09/03 10:31:12;;;;;;;1.70;1.17;;;;;;;24.44;100.00;96896.53;5012759;28;24457;-72
2023/09/03 10:33:41;;;;;;;1.23;0.97;;;;;;;24.27;100.00;96889.44;5013466;28;24761;-72
2023/09/03 10:36:15;;;;;;;1.70;1.20;;;;;;;24.35;100.00;96884.19;5013355;28;24502;-72
2023/09/03 10:38:42;;;;;;;1.60;1.15;;;;;;;24.38;100.00;96876.75;5013665;28;24435;-72
2023/09/03 10:41:16;;;;;;;2.30;1.20;;;;;;;24.36;100.00;96873.47;5013745;28;24982;-72
2023/09/03 10:43:42;;;;;;;2.27;1.10;;;;;;;24.52;100.00;96875.41;5013679;28;24416;-72
2023/09/03 10:46:09;;;;;;;2.05;1.27;;;;;;;24.41;100.00;96880.13;5014217;28;24512;-72
2023/09/03 10:48:36;;;;;;;2.30;1.17;;;;;;;24.52;100.00;96878.06;5014002;28;24982;-72
2023/09/03 10:51:05;;;;;;;2.03;1.00;;;;;;;24.24;100.00;96877.31;5013883;28;24420;-72
2023/09/03 10:53:39;;;;;;;1.25;0.85;;;;;;;24.50;100.00;96866.78;5014112;28;24430;-72
2023/09/03 10:56:08;;;;;;;3.53;1.05;;;;;;;24.56;100.00;96867.97;5014440;28;24544;-72
2023/09/03 10:58:34;;;;;;;1.20;1.10;;;;;;;24.56;100.00;96870.63;5014221;28;24424;-73
2023/09/03 11:01:22;;;;;;;1.52;0.88;;;;;;;24.49;100.00;96864.28;5013746;28;24450;-72
2023/09/03 11:03:52;;;;;;;1.77;1.00;;;;;;;24.43;100.00;96871.03;5008308;28;24499;-72
2023/09/03 11:06:21;;;;;;;1.20;1.05;;;;;;;24.43;100.00;96868.38;5013244;28;24497;-72
2023/09/03 11:08:48;;;;;;;1.80;1.10;;;;;;;24.65;100.00;96867.03;5012903;28;24425;-72
2023/09/03 11:11:22;;;;;;;2.08;0.90;;;;;;;24.65;100.00;96871.50;5012924;28;24429;-72
2023/09/03 11:13:52;;;;;;;1.52;1.00;;;;;;;24.63;100.00;96875.13;5012968;28;24428;-72
2023/09/03 11:16:19;;;;;;;2.42;0.80;;;;;;;24.62;100.00;96875.28;5013827;28;24449;-72
2023/09/03 11:18:49;;;;;;;0.73;0.70;;;;;;;24.34;100.00;96874.59;5013332;28;24425;-72
2023/09/03 11:21:16;;;;;;;3.20;0.90;;;;;;;24.43;100.00;96871.03;5014875;28;24500;-73
2023/09/03 11:26:37;;;;;;;1.58;1.00;;;;;;;24.74;100.00;96860.78;5172548;27;24388;-71
2023/09/03 11:29:04;;;;;;;1.27;0.90;;;;;;;24.67;100.00;96859.75;5161814;27;24469;-71